sensor_id;sensor_type;location;lat;lon;timestamp;P1;durP1;ratioP1;P2;durP2;ratioP2
28170;SDS011;15458;53.346;-1.688;2023-02-13T00:01:16;21.98;;;15.40;;
28170;SDS011;15458;53.346;-1.688;2023-02-13T00:03:42;23.63;;;15.02;;
28170;SDS011;15458;53.346;-1.688;2023-02-13T00:06:07;22.02;;;14.43;;
28170;SDS011;15458;53.346;-1.688;2023-02-13T00:08:33;20.98;;;14.23;;
28170;SDS011;15458;53.346;-1.688;2023-02-13T00:10:59;22.73;;;14.75;;
28170;SDS011;15458;53.346;-1.688;2023-02-13T00:13:25;23.02;;;14.60;;
28170;SDS011;15458;53.346;-1.688;2023-02-13T00:15:58;21.23;;;14.98;;
28170;SDS011;15458;53.346;-1.688;2023-02-13T00:18:25;22.55;;;14.73;;
28170;SDS011;15458;53.346;-1.688;2023-02-13T00:21:02;18.48;;;12.63;;
28170;SDS011;15458;53.346;-1.688;2023-02-13T00:23:32;22.17;;;13.87;;
28170;SDS011;15458;53.346;-1.688;2023-02-13T00:25:59;21.52;;;14.00;;
28170;SDS011;15458;53.346;-1.688;2023-02-13T00:28:28;20.75;;;13.55;;
28170;SDS011;15458;53.346;-1.688;2023-02-13T00:31:00;18.23;;;12.55;;
28170;SDS011;15458;53.346;-1.688;2023-02-13T00:33:27;20.65;;;13.25;;
28170;SDS011;15458;53.346;-1.688;2023-02-13T00:36:00;17.20;;;11.88;;
28170;SDS011;15458;53.346;-1.688;2023-02-13T00:38:35;18.23;;;12.10;;
28170;SDS011;15458;53.346;-1.688;2023-02-13T00:41:02;19.23;;;12.38;;
28170;SDS011;15458;53.346;-1.688;2023-02-13T00:43:28;19.60;;;12.82;;
28170;SDS011;15458;53.346;-1.688;2023-02-13T00:45:54;21.75;;;11.82;;
28170;SDS011;15458;53.346;-1.688;2023-02-13T00:48:20;18.42;;;11.93;;
28170;SDS011;15458;53.346;-1.688;2023-02-13T00:50:46;15.63;;;11.20;;
28170;SDS011;15458;53.346;-1.688;2023-02-13T00:53:12;21.02;;;12.55;;
28170;SDS011;15458;53.346;-1.688;2023-02-13T00:55:38;21.83;;;12.27;;
28170;SDS011;15458;53.346;-1.688;2023-02-13T00:58:03;18.40;;;12.13;;
28170;SDS011;15458;53.346;-1.688;2023-02-13T01:00:29;19.75;;;12.95;;
28170;SDS011;15458;53.346;-1.688;2023-02-13T01:02:55;18.67;;;13.75;;
28170;SDS011;15458;53.346;-1.688;2023-02-13T01:05:20;21.10;;;12.07;;
28170;SDS011;15458;53.346;-1.688;2023-02-13T01:07:46;21.58;;;12.40;;
28170;SDS011;15458;53.346;-1.688;2023-02-13T01:10:11;20.70;;;12.93;;
28170;SDS011;15458;53.346;-1.688;2023-02-13T01:12:37;18.52;;;11.57;;
28170;SDS011;15458;53.346;-1.688;2023-02-13T01:15:03;20.75;;;13.30;;
28170;SDS011;15458;53.346;-1.688;2023-02-13T01:17:30;19.25;;;13.48;;
28170;SDS011;15458;53.346;-1.688;2023-02-13T01:19:55;22.08;;;14.43;;
28170;SDS011;15458;53.346;-1.688;2023-02-13T01:22:21;22.30;;;13.35;;
28170;SDS011;15458;53.346;-1.688;2023-02-13T01:24:46;22.23;;;13.65;;
28170;SDS011;15458;53.346;-1.688;2023-02-13T01:27:12;20.20;;;12.35;;
28170;SDS011;15458;53.346;-1.688;2023-02-13T01:29:38;21.85;;;13.43;;
28170;SDS011;15458;53.346;-1.688;2023-02-13T01:32:03;19.27;;;13.13;;
28170;SDS011;15458;53.346;-1.688;2023-02-13T01:34:30;22.35;;;14.45;;
28170;SDS011;15458;53.346;-1.688;2023-02-13T01:36:57;21.83;;;14.48;;
28170;SDS011;15458;53.346;-1.688;2023-02-13T01:39:23;24.02;;;14.07;;
28170;SDS011;15458;53.346;-1.688;2023-02-13T01:41:49;21.48;;;13.75;;
28170;SDS011;15458;53.346;-1.688;2023-02-13T01:47:19;23.95;;;15.25;;
28170;SDS011;15458;53.346;-1.688;2023-02-13T01:49:55;19.33;;;12.10;;
28170;SDS011;15458;53.346;-1.688;2023-02-13T01:52:30;24.85;;;15.23;;
28170;SDS011;15458;53.346;-1.688;2023-02-13T01:54:56;23.92;;;14.05;;
28170;SDS011;15458;53.346;-1.688;2023-02-13T01:57:22;23.33;;;15.45;;
28170;SDS011;15458;53.346;-1.688;2023-02-13T01:59:51;22.00;;;14.20;;
28170;SDS011;15458;53.346;-1.688;2023-02-13T02:02:23;20.60;;;13.40;;
28170;SDS011;15458;53.346;-1.688;2023-02-13T02:04:50;20.95;;;14.15;;
28170;SDS011;15458;53.346;-1.688;2023-02-13T02:07:18;22.67;;;14.13;;
28170;SDS011;15458;53.346;-1.688;2023-02-13T02:09:46;22.95;;;14.55;;
28170;SDS011;15458;53.346;-1.688;2023-02-13T02:12:17;20.45;;;13.57;;
28170;SDS011;15458;53.346;-1.688;2023-02-13T02:14:53;22.50;;;13.95;;
28170;SDS011;15458;53.346;-1.688;2023-02-13T02:17:22;21.40;;;13.68;;
28170;SDS011;15458;53.346;-1.688;2023-02-13T02:22:45;21.95;;;13.52;;
28170;SDS011;15458;53.346;-1.688;2023-02-13T02:30:58;24.63;;;14.27;;
28170;SDS011;15458;53.346;-1.688;2023-02-13T02:36:30;21.38;;;13.65;;
28170;SDS011;15458;53.346;-1.688;2023-02-13T02:42:01;23.27;;;13.10;;
28170;SDS011;15458;53.346;-1.688;2023-02-13T02:44:42;20.90;;;13.13;;
28170;SDS011;15458;53.346;-1.688;2023-02-13T02:55:51;20.30;;;13.80;;
28170;SDS011;15458;53.346;-1.688;2023-02-13T03:01:15;20.40;;;13.30;;
28170;SDS011;15458;53.346;-1.688;2023-02-13T03:04:03;23.10;;;13.07;;
28170;SDS011;15458;53.346;-1.688;2023-02-13T03:06:55;20.73;;;12.63;;
28170;SDS011;15458;53.346;-1.688;2023-02-13T03:09:27;19.35;;;12.23;;
28170;SDS011;15458;53.346;-1.688;2023-02-13T03:12:16;20.92;;;12.18;;
28170;SDS011;15458;53.346;-1.688;2023-02-13T03:15:05;19.83;;;12.63;;
28170;SDS011;15458;53.346;-1.688;2023-02-13T03:17:31;18.02;;;12.02;;
28170;SDS011;15458;53.346;-1.688;2023-02-13T03:24:32;16.10;;;10.95;;
28170;SDS011;15458;53.346;-1.688;2023-02-13T03:32:44;18.30;;;11.57;;
28170;SDS011;15458;53.346;-1.688;2023-02-13T03:35:36;19.10;;;12.35;;
28170;SDS011;15458;53.346;-1.688;2023-02-13T03:41:36;16.52;;;10.75;;
28170;SDS011;15458;53.346;-1.688;2023-02-13T03:44:14;18.20;;;11.27;;
28170;SDS011;15458;53.346;-1.688;2023-02-13T03:46:47;17.40;;;10.98;;
28170;SDS011;15458;53.346;-1.688;2023-02-13T03:49:34;15.63;;;10.82;;
28170;SDS011;15458;53.346;-1.688;2023-02-13T03:55:18;17.40;;;10.68;;
28170;SDS011;15458;53.346;-1.688;2023-02-13T03:58:11;19.90;;;11.10;;
28170;SDS011;15458;53.346;-1.688;2023-02-13T04:01:00;17.47;;;11.50;;
28170;SDS011;15458;53.346;-1.688;2023-02-13T04:06:05;15.13;;;10.63;;
28170;SDS011;15458;53.346;-1.688;2023-02-13T04:08:34;16.55;;;10.98;;
28170;SDS011;15458;53.346;-1.688;2023-02-13T04:13:31;17.60;;;11.40;;
28170;SDS011;15458;53.346;-1.688;2023-02-13T04:18:37;16.40;;;9.73;;
28170;SDS011;15458;53.346;-1.688;2023-02-13T04:21:04;20.05;;;11.77;;
28170;SDS011;15458;53.346;-1.688;2023-02-13T04:23:31;19.55;;;10.60;;
28170;SDS011;15458;53.346;-1.688;2023-02-13T04:25:58;18.08;;;10.82;;
28170;SDS011;15458;53.346;-1.688;2023-02-13T04:28:26;17.83;;;12.02;;
28170;SDS011;15458;53.346;-1.688;2023-02-13T04:30:52;17.90;;;10.93;;
28170;SDS011;15458;53.346;-1.688;2023-02-13T04:33:18;19.60;;;11.50;;
28170;SDS011;15458;53.346;-1.688;2023-02-13T04:35:43;18.13;;;10.85;;
28170;SDS011;15458;53.346;-1.688;2023-02-13T04:38:09;22.45;;;12.05;;
28170;SDS011;15458;53.346;-1.688;2023-02-13T04:40:35;18.17;;;10.85;;
28170;SDS011;15458;53.346;-1.688;2023-02-13T04:43:00;21.35;;;12.48;;
28170;SDS011;15458;53.346;-1.688;2023-02-13T04:45:26;18.92;;;11.52;;
28170;SDS011;15458;53.346;-1.688;2023-02-13T04:47:52;22.38;;;11.68;;
28170;SDS011;15458;53.346;-1.688;2023-02-13T04:50:19;20.73;;;11.63;;
28170;SDS011;15458;53.346;-1.688;2023-02-13T04:52:45;19.95;;;11.95;;
28170;SDS011;15458;53.346;-1.688;2023-02-13T04:55:11;19.27;;;11.68;;
28170;SDS011;15458;53.346;-1.688;2023-02-13T04:57:37;18.55;;;10.55;;
28170;SDS011;15458;53.346;-1.688;2023-02-13T05:00:04;19.02;;;12.18;;
28170;SDS011;15458;53.346;-1.688;2023-02-13T05:02:30;22.48;;;11.73;;
28170;SDS011;15458;53.346;-1.688;2023-02-13T05:04:56;18.85;;;10.93;;
28170;SDS011;15458;53.346;-1.688;2023-02-13T05:07:22;21.38;;;13.07;;
28170;SDS011;15458;53.346;-1.688;2023-02-13T05:09:47;21.17;;;12.88;;
28170;SDS011;15458;53.346;-1.688;2023-02-13T05:12:13;23.33;;;13.50;;
28170;SDS011;15458;53.346;-1.688;2023-02-13T05:14:39;21.50;;;13.45;;
28170;SDS011;15458;53.346;-1.688;2023-02-13T05:17:04;26.58;;;12.93;;
28170;SDS011;15458;53.346;-1.688;2023-02-13T05:19:30;24.45;;;13.32;;
28170;SDS011;15458;53.346;-1.688;2023-02-13T05:21:56;24.38;;;13.57;;
28170;SDS011;15458;53.346;-1.688;2023-02-13T05:24:40;26.13;;;11.68;;
28170;SDS011;15458;53.346;-1.688;2023-02-13T05:27:06;22.63;;;12.18;;
28170;SDS011;15458;53.346;-1.688;2023-02-13T05:29:31;25.20;;;13.05;;
28170;SDS011;15458;53.346;-1.688;2023-02-13T05:31:57;23.75;;;12.20;;
28170;SDS011;15458;53.346;-1.688;2023-02-13T05:34:24;26.17;;;13.77;;
28170;SDS011;15458;53.346;-1.688;2023-02-13T05:36:51;23.40;;;13.25;;
28170;SDS011;15458;53.346;-1.688;2023-02-13T05:39:17;24.75;;;11.85;;
28170;SDS011;15458;53.346;-1.688;2023-02-13T05:41:43;28.25;;;13.85;;
28170;SDS011;15458;53.346;-1.688;2023-02-13T05:44:10;24.80;;;13.38;;
28170;SDS011;15458;53.346;-1.688;2023-02-13T05:46:37;21.98;;;12.60;;
28170;SDS011;15458;53.346;-1.688;2023-02-13T05:49:03;26.08;;;13.90;;
28170;SDS011;15458;53.346;-1.688;2023-02-13T05:51:30;25.00;;;13.32;;
28170;SDS011;15458;53.346;-1.688;2023-02-13T05:53:56;25.38;;;13.60;;
28170;SDS011;15458;53.346;-1.688;2023-02-13T05:56:21;23.88;;;11.38;;
28170;SDS011;15458;53.346;-1.688;2023-02-13T05:58:49;29.83;;;14.85;;
28170;SDS011;15458;53.346;-1.688;2023-02-13T06:01:16;26.90;;;13.65;;
28170;SDS011;15458;53.346;-1.688;2023-02-13T06:03:42;28.52;;;14.35;;
28170;SDS011;15458;53.346;-1.688;2023-02-13T06:06:08;28.50;;;13.95;;
28170;SDS011;15458;53.346;-1.688;2023-02-13T06:08:33;26.95;;;14.27;;
28170;SDS011;15458;53.346;-1.688;2023-02-13T06:10:59;26.65;;;12.68;;
28170;SDS011;15458;53.346;-1.688;2023-02-13T06:13:25;28.88;;;13.85;;
28170;SDS011;15458;53.346;-1.688;2023-02-13T06:15:51;28.55;;;14.10;;
28170;SDS011;15458;53.346;-1.688;2023-02-13T06:18:16;25.55;;;11.88;;
28170;SDS011;15458;53.346;-1.688;2023-02-13T06:20:42;30.45;;;14.10;;
28170;SDS011;15458;53.346;-1.688;2023-02-13T06:23:08;29.52;;;13.52;;
28170;SDS011;15458;53.346;-1.688;2023-02-13T06:25:34;28.48;;;13.95;;
28170;SDS011;15458;53.346;-1.688;2023-02-13T06:28:00;33.10;;;13.73;;
28170;SDS011;15458;53.346;-1.688;2023-02-13T06:30:27;31.67;;;13.85;;
28170;SDS011;15458;53.346;-1.688;2023-02-13T06:32:53;32.65;;;15.93;;
28170;SDS011;15458;53.346;-1.688;2023-02-13T06:35:18;28.88;;;14.65;;
28170;SDS011;15458;53.346;-1.688;2023-02-13T06:37:44;27.60;;;13.52;;
28170;SDS011;15458;53.346;-1.688;2023-02-13T06:40:11;30.90;;;14.15;;
28170;SDS011;15458;53.346;-1.688;2023-02-13T06:42:37;30.50;;;14.40;;
28170;SDS011;15458;53.346;-1.688;2023-02-13T06:45:03;27.90;;;13.00;;
28170;SDS011;15458;53.346;-1.688;2023-02-13T06:47:29;33.83;;;14.32;;
28170;SDS011;15458;53.346;-1.688;2023-02-13T06:49:55;27.02;;;13.30;;
28170;SDS011;15458;53.346;-1.688;2023-02-13T06:52:21;36.40;;;17.00;;
28170;SDS011;15458;53.346;-1.688;2023-02-13T06:54:46;35.50;;;16.05;;
28170;SDS011;15458;53.346;-1.688;2023-02-13T06:57:12;28.52;;;13.98;;
28170;SDS011;15458;53.346;-1.688;2023-02-13T06:59:38;29.25;;;13.75;;
28170;SDS011;15458;53.346;-1.688;2023-02-13T07:02:03;28.35;;;12.98;;
28170;SDS011;15458;53.346;-1.688;2023-02-13T07:04:29;28.85;;;12.65;;
28170;SDS011;15458;53.346;-1.688;2023-02-13T07:06:55;35.15;;;15.43;;
28170;SDS011;15458;53.346;-1.688;2023-02-13T07:09:21;29.35;;;13.25;;
28170;SDS011;15458;53.346;-1.688;2023-02-13T07:11:48;30.17;;;13.32;;
28170;SDS011;15458;53.346;-1.688;2023-02-13T07:14:14;31.95;;;14.75;;
28170;SDS011;15458;53.346;-1.688;2023-02-13T07:16:40;29.98;;;13.40;;
28170;SDS011;15458;53.346;-1.688;2023-02-13T07:19:05;30.27;;;12.93;;
28170;SDS011;15458;53.346;-1.688;2023-02-13T07:21:31;30.80;;;14.38;;
28170;SDS011;15458;53.346;-1.688;2023-02-13T07:23:56;33.25;;;13.93;;
28170;SDS011;15458;53.346;-1.688;2023-02-13T07:26:22;38.03;;;15.38;;
28170;SDS011;15458;53.346;-1.688;2023-02-13T07:28:48;36.47;;;14.95;;
28170;SDS011;15458;53.346;-1.688;2023-02-13T07:31:14;35.83;;;16.27;;
28170;SDS011;15458;53.346;-1.688;2023-02-13T07:33:39;27.35;;;12.15;;
28170;SDS011;15458;53.346;-1.688;2023-02-13T07:36:05;34.38;;;15.93;;
28170;SDS011;15458;53.346;-1.688;2023-02-13T07:38:31;35.97;;;16.33;;
28170;SDS011;15458;53.346;-1.688;2023-02-13T07:40:58;31.88;;;13.98;;
28170;SDS011;15458;53.346;-1.688;2023-02-13T07:43:24;34.65;;;14.60;;
28170;SDS011;15458;53.346;-1.688;2023-02-13T07:45:50;32.20;;;13.77;;
28170;SDS011;15458;53.346;-1.688;2023-02-13T07:48:19;33.03;;;14.98;;
28170;SDS011;15458;53.346;-1.688;2023-02-13T07:50:50;33.47;;;15.38;;
28170;SDS011;15458;53.346;-1.688;2023-02-13T07:53:16;29.98;;;14.32;;
28170;SDS011;15458;53.346;-1.688;2023-02-13T07:55:41;34.33;;;15.10;;
28170;SDS011;15458;53.346;-1.688;2023-02-13T07:58:07;31.35;;;14.18;;
28170;SDS011;15458;53.346;-1.688;2023-02-13T08:00:33;33.22;;;13.75;;
28170;SDS011;15458;53.346;-1.688;2023-02-13T08:02:59;33.13;;;14.77;;
28170;SDS011;15458;53.346;-1.688;2023-02-13T08:05:25;33.85;;;16.20;;
28170;SDS011;15458;53.346;-1.688;2023-02-13T08:07:51;35.35;;;14.95;;
28170;SDS011;15458;53.346;-1.688;2023-02-13T08:10:17;35.45;;;15.07;;
28170;SDS011;15458;53.346;-1.688;2023-02-13T08:13:02;34.65;;;15.23;;
28170;SDS011;15458;53.346;-1.688;2023-02-13T08:15:28;33.17;;;15.63;;
28170;SDS011;15458;53.346;-1.688;2023-02-13T08:17:54;40.75;;;16.45;;
28170;SDS011;15458;53.346;-1.688;2023-02-13T08:20:20;36.30;;;17.90;;
28170;SDS011;15458;53.346;-1.688;2023-02-13T08:22:47;35.42;;;16.00;;
28170;SDS011;15458;53.346;-1.688;2023-02-13T08:25:13;40.83;;;17.90;;
28170;SDS011;15458;53.346;-1.688;2023-02-13T08:27:39;38.58;;;16.42;;
28170;SDS011;15458;53.346;-1.688;2023-02-13T08:30:05;38.40;;;14.98;;
28170;SDS011;15458;53.346;-1.688;2023-02-13T08:32:32;37.88;;;16.63;;
28170;SDS011;15458;53.346;-1.688;2023-02-13T08:34:57;33.47;;;16.13;;
28170;SDS011;15458;53.346;-1.688;2023-02-13T08:37:25;33.58;;;15.55;;
28170;SDS011;15458;53.346;-1.688;2023-02-13T08:39:51;35.03;;;16.90;;
28170;SDS011;15458;53.346;-1.688;2023-02-13T08:42:17;37.95;;;15.70;;
28170;SDS011;15458;53.346;-1.688;2023-02-13T08:44:43;30.92;;;14.73;;
28170;SDS011;15458;53.346;-1.688;2023-02-13T08:47:12;36.05;;;15.13;;
28170;SDS011;15458;53.346;-1.688;2023-02-13T08:49:37;35.00;;;15.32;;
28170;SDS011;15458;53.346;-1.688;2023-02-13T08:52:03;36.35;;;16.40;;
28170;SDS011;15458;53.346;-1.688;2023-02-13T08:54:29;35.65;;;15.70;;
28170;SDS011;15458;53.346;-1.688;2023-02-13T08:56:55;36.88;;;16.42;;
28170;SDS011;15458;53.346;-1.688;2023-02-13T08:59:21;38.17;;;17.52;;
28170;SDS011;15458;53.346;-1.688;2023-02-13T09:01:49;37.63;;;17.38;;
28170;SDS011;15458;53.346;-1.688;2023-02-13T09:04:14;42.08;;;18.33;;
28170;SDS011;15458;53.346;-1.688;2023-02-13T09:06:42;35.30;;;16.33;;
28170;SDS011;15458;53.346;-1.688;2023-02-13T09:09:08;40.05;;;16.10;;
28170;SDS011;15458;53.346;-1.688;2023-02-13T09:11:34;39.88;;;18.20;;
28170;SDS011;15458;53.346;-1.688;2023-02-13T09:14:00;41.28;;;16.35;;
28170;SDS011;15458;53.346;-1.688;2023-02-13T09:16:26;31.25;;;12.85;;
28170;SDS011;15458;53.346;-1.688;2023-02-13T09:18:51;37.78;;;16.58;;
28170;SDS011;15458;53.346;-1.688;2023-02-13T09:21:20;39.08;;;15.70;;
28170;SDS011;15458;53.346;-1.688;2023-02-13T09:23:49;36.70;;;15.20;;
28170;SDS011;15458;53.346;-1.688;2023-02-13T09:26:17;38.00;;;17.65;;
28170;SDS011;15458;53.346;-1.688;2023-02-13T09:28:44;38.15;;;16.80;;
28170;SDS011;15458;53.346;-1.688;2023-02-13T09:31:13;36.03;;;16.42;;
28170;SDS011;15458;53.346;-1.688;2023-02-13T09:33:40;39.78;;;17.52;;
28170;SDS011;15458;53.346;-1.688;2023-02-13T09:36:11;40.03;;;17.15;;
28170;SDS011;15458;53.346;-1.688;2023-02-13T09:38:43;39.97;;;17.58;;
28170;SDS011;15458;53.346;-1.688;2023-02-13T09:41:20;34.03;;;15.70;;
28170;SDS011;15458;53.346;-1.688;2023-02-13T09:44:01;36.67;;;16.35;;
28170;SDS011;15458;53.346;-1.688;2023-02-13T09:46:37;40.80;;;15.98;;
28170;SDS011;15458;53.346;-1.688;2023-02-13T09:49:23;38.03;;;17.13;;
28170;SDS011;15458;53.346;-1.688;2023-02-13T09:51:54;36.95;;;17.27;;
28170;SDS011;15458;53.346;-1.688;2023-02-13T09:54:21;38.75;;;16.98;;
28170;SDS011;15458;53.346;-1.688;2023-02-13T10:10:52;40.75;;;17.98;;
28170;SDS011;15458;53.346;-1.688;2023-02-13T10:14:00;39.08;;;16.60;;
28170;SDS011;15458;53.346;-1.688;2023-02-13T10:16:37;41.17;;;17.70;;
28170;SDS011;15458;53.346;-1.688;2023-02-13T10:22:12;36.65;;;16.95;;
28170;SDS011;15458;53.346;-1.688;2023-02-13T10:24:40;38.05;;;17.63;;
28170;SDS011;15458;53.346;-1.688;2023-02-13T10:27:26;36.65;;;16.45;;
28170;SDS011;15458;53.346;-1.688;2023-02-13T10:38:20;43.70;;;15.82;;
28170;SDS011;15458;53.346;-1.688;2023-02-13T10:43:38;34.75;;;17.15;;
28170;SDS011;15458;53.346;-1.688;2023-02-13T10:46:30;38.10;;;16.60;;
28170;SDS011;15458;53.346;-1.688;2023-02-13T10:51:59;37.50;;;16.30;;
28170;SDS011;15458;53.346;-1.688;2023-02-13T11:02:28;36.15;;;16.83;;
28170;SDS011;15458;53.346;-1.688;2023-02-13T11:04:58;37.85;;;17.27;;
28170;SDS011;15458;53.346;-1.688;2023-02-13T11:07:45;34.55;;;15.38;;
28170;SDS011;15458;53.346;-1.688;2023-02-13T11:12:45;35.85;;;16.05;;
28170;SDS011;15458;53.346;-1.688;2023-02-13T11:17:50;32.10;;;15.50;;
28170;SDS011;15458;53.346;-1.688;2023-02-13T11:22:52;37.42;;;16.98;;
28170;SDS011;15458;53.346;-1.688;2023-02-13T11:25:20;36.28;;;16.23;;
28170;SDS011;15458;53.346;-1.688;2023-02-13T11:27:53;36.70;;;16.30;;
28170;SDS011;15458;53.346;-1.688;2023-02-13T11:30:35;38.97;;;17.50;;
28170;SDS011;15458;53.346;-1.688;2023-02-13T11:33:16;40.58;;;18.15;;
28170;SDS011;15458;53.346;-1.688;2023-02-13T11:35:47;37.55;;;17.90;;
28170;SDS011;15458;53.346;-1.688;2023-02-13T11:38:22;40.58;;;16.67;;
28170;SDS011;15458;53.346;-1.688;2023-02-13T11:40:49;37.22;;;17.20;;
28170;SDS011;15458;53.346;-1.688;2023-02-13T11:43:29;39.67;;;15.98;;
28170;SDS011;15458;53.346;-1.688;2023-02-13T11:46:06;33.90;;;15.02;;
28170;SDS011;15458;53.346;-1.688;2023-02-13T11:48:56;35.35;;;16.65;;
28170;SDS011;15458;53.346;-1.688;2023-02-13T11:56:52;29.92;;;14.95;;
28170;SDS011;15458;53.346;-1.688;2023-02-13T11:59:23;33.58;;;15.60;;
28170;SDS011;15458;53.346;-1.688;2023-02-13T12:04:27;32.45;;;15.55;;
28170;SDS011;15458;53.346;-1.688;2023-02-13T12:06:57;28.85;;;14.55;;
28170;SDS011;15458;53.346;-1.688;2023-02-13T12:09:28;33.05;;;15.73;;
28170;SDS011;15458;53.346;-1.688;2023-02-13T12:12:01;31.65;;;15.57;;
28170;SDS011;15458;53.346;-1.688;2023-02-13T12:14:31;31.50;;;15.18;;
28170;SDS011;15458;53.346;-1.688;2023-02-13T12:19:28;31.75;;;15.35;;
28170;SDS011;15458;53.346;-1.688;2023-02-13T12:22:02;32.13;;;15.70;;
28170;SDS011;15458;53.346;-1.688;2023-02-13T12:38:34;30.83;;;15.98;;
28170;SDS011;15458;53.346;-1.688;2023-02-13T12:43:47;27.77;;;14.90;;
28170;SDS011;15458;53.346;-1.688;2023-02-13T12:47:04;28.25;;;14.88;;
28170;SDS011;15458;53.346;-1.688;2023-02-13T12:49:50;29.00;;;14.53;;
28170;SDS011;15458;53.346;-1.688;2023-02-13T12:52:39;29.45;;;15.10;;
28170;SDS011;15458;53.346;-1.688;2023-02-13T12:58:48;29.48;;;16.15;;
28170;SDS011;15458;53.346;-1.688;2023-02-13T13:01:43;30.10;;;14.73;;
28170;SDS011;15458;53.346;-1.688;2023-02-13T13:15:17;35.58;;;16.08;;
28170;SDS011;15458;53.346;-1.688;2023-02-13T13:21:12;27.77;;;14.15;;
28170;SDS011;15458;53.346;-1.688;2023-02-13T13:26:30;30.88;;;15.43;;
28170;SDS011;15458;53.346;-1.688;2023-02-13T13:29:33;31.30;;;16.13;;
28170;SDS011;15458;53.346;-1.688;2023-02-13T13:32:13;28.70;;;15.50;;
28170;SDS011;15458;53.346;-1.688;2023-02-13T13:34:42;31.40;;;15.63;;
28170;SDS011;15458;53.346;-1.688;2023-02-13T13:37:21;33.92;;;16.35;;
28170;SDS011;15458;53.346;-1.688;2023-02-13T13:42:52;32.83;;;16.48;;
28170;SDS011;15458;53.346;-1.688;2023-02-13T13:45:29;28.08;;;15.63;;
28170;SDS011;15458;53.346;-1.688;2023-02-13T13:51:02;29.90;;;16.42;;
28170;SDS011;15458;53.346;-1.688;2023-02-13T13:53:30;27.85;;;15.48;;
28170;SDS011;15458;53.346;-1.688;2023-02-13T13:58:25;30.95;;;16.63;;
28170;SDS011;15458;53.346;-1.688;2023-02-13T14:03:56;29.27;;;15.73;;
28170;SDS011;15458;53.346;-1.688;2023-02-13T14:09:35;31.02;;;17.10;;
28170;SDS011;15458;53.346;-1.688;2023-02-13T14:14:52;29.38;;;16.70;;
28170;SDS011;15458;53.346;-1.688;2023-02-13T14:20:19;31.63;;;16.90;;
28170;SDS011;15458;53.346;-1.688;2023-02-13T14:22:46;34.22;;;19.83;;
28170;SDS011;15458;53.346;-1.688;2023-02-13T14:27:56;33.45;;;18.60;;
28170;SDS011;15458;53.346;-1.688;2023-02-13T14:30:33;28.75;;;16.90;;
28170;SDS011;15458;53.346;-1.688;2023-02-13T14:33:03;35.58;;;17.83;;
28170;SDS011;15458;53.346;-1.688;2023-02-13T14:35:33;32.55;;;18.80;;
28170;SDS011;15458;53.346;-1.688;2023-02-13T14:38:02;38.58;;;19.10;;
28170;SDS011;15458;53.346;-1.688;2023-02-13T14:48:52;32.65;;;18.48;;
28170;SDS011;15458;53.346;-1.688;2023-02-13T14:51:25;29.75;;;17.30;;
28170;SDS011;15458;53.346;-1.688;2023-02-13T14:59:53;31.88;;;17.67;;
28170;SDS011;15458;53.346;-1.688;2023-02-13T15:02:26;32.35;;;18.02;;
28170;SDS011;15458;53.346;-1.688;2023-02-13T15:07:30;32.38;;;18.48;;
28170;SDS011;15458;53.346;-1.688;2023-02-13T15:10:00;30.85;;;17.55;;
28170;SDS011;15458;53.346;-1.688;2023-02-13T15:12:55;33.38;;;17.63;;
28170;SDS011;15458;53.346;-1.688;2023-02-13T15:15:40;34.45;;;18.33;;
28170;SDS011;15458;53.346;-1.688;2023-02-13T15:18:18;33.85;;;18.42;;
28170;SDS011;15458;53.346;-1.688;2023-02-13T15:20:46;32.28;;;17.90;;
28170;SDS011;15458;53.346;-1.688;2023-02-13T15:23:18;37.65;;;18.20;;
28170;SDS011;15458;53.346;-1.688;2023-02-13T15:25:46;33.83;;;17.98;;
28170;SDS011;15458;53.346;-1.688;2023-02-13T15:28:18;31.70;;;18.52;;
28170;SDS011;15458;53.346;-1.688;2023-02-13T15:30:58;35.90;;;19.05;;
28170;SDS011;15458;53.346;-1.688;2023-02-13T15:35:57;34.75;;;18.33;;
28170;SDS011;15458;53.346;-1.688;2023-02-13T15:38:28;33.15;;;18.85;;
28170;SDS011;15458;53.346;-1.688;2023-02-13T15:41:00;35.47;;;19.52;;
28170;SDS011;15458;53.346;-1.688;2023-02-13T15:43:34;32.53;;;18.75;;
28170;SDS011;15458;53.346;-1.688;2023-02-13T15:46:04;36.45;;;18.83;;
28170;SDS011;15458;53.346;-1.688;2023-02-13T15:48:33;35.60;;;20.08;;
28170;SDS011;15458;53.346;-1.688;2023-02-13T15:50:59;34.22;;;19.15;;
28170;SDS011;15458;53.346;-1.688;2023-02-13T15:53:26;36.03;;;18.98;;
28170;SDS011;15458;53.346;-1.688;2023-02-13T15:56:01;35.92;;;19.08;;
28170;SDS011;15458;53.346;-1.688;2023-02-13T15:58:30;39.63;;;21.60;;
28170;SDS011;15458;53.346;-1.688;2023-02-13T16:01:16;37.25;;;20.48;;
28170;SDS011;15458;53.346;-1.688;2023-02-13T16:03:42;41.10;;;21.08;;
28170;SDS011;15458;53.346;-1.688;2023-02-13T16:06:15;41.55;;;21.40;;
28170;SDS011;15458;53.346;-1.688;2023-02-13T16:08:51;43.13;;;20.88;;
28170;SDS011;15458;53.346;-1.688;2023-02-13T16:14:16;37.97;;;20.48;;
28170;SDS011;15458;53.346;-1.688;2023-02-13T16:16:46;42.00;;;21.42;;
28170;SDS011;15458;53.346;-1.688;2023-02-13T16:21:46;40.13;;;21.08;;
28170;SDS011;15458;53.346;-1.688;2023-02-13T16:24:13;41.03;;;20.48;;
28170;SDS011;15458;53.346;-1.688;2023-02-13T16:26:40;40.05;;;20.75;;
28170;SDS011;15458;53.346;-1.688;2023-02-13T16:29:13;41.08;;;20.92;;
28170;SDS011;15458;53.346;-1.688;2023-02-13T16:31:44;42.60;;;22.00;;
28170;SDS011;15458;53.346;-1.688;2023-02-13T16:34:26;45.17;;;22.00;;
28170;SDS011;15458;53.346;-1.688;2023-02-13T16:36:53;41.65;;;20.35;;
28170;SDS011;15458;53.346;-1.688;2023-02-13T16:39:20;45.78;;;22.13;;
28170;SDS011;15458;53.346;-1.688;2023-02-13T16:41:54;49.88;;;24.00;;
28170;SDS011;15458;53.346;-1.688;2023-02-13T16:44:33;50.13;;;24.30;;
28170;SDS011;15458;53.346;-1.688;2023-02-13T16:47:02;47.78;;;23.33;;
28170;SDS011;15458;53.346;-1.688;2023-02-13T16:49:33;48.58;;;22.70;;
28170;SDS011;15458;53.346;-1.688;2023-02-13T17:07:34;49.35;;;22.48;;
28170;SDS011;15458;53.346;-1.688;2023-02-13T17:12:29;47.10;;;21.80;;
28170;SDS011;15458;53.346;-1.688;2023-02-13T17:14:59;42.90;;;22.05;;
28170;SDS011;15458;53.346;-1.688;2023-02-13T17:17:26;44.85;;;21.48;;
28170;SDS011;15458;53.346;-1.688;2023-02-13T17:19:53;47.88;;;21.90;;
28170;SDS011;15458;53.346;-1.688;2023-02-13T17:24:47;44.80;;;21.98;;
28170;SDS011;15458;53.346;-1.688;2023-02-13T17:27:13;45.97;;;21.92;;
28170;SDS011;15458;53.346;-1.688;2023-02-13T17:29:39;50.72;;;24.08;;
28170;SDS011;15458;53.346;-1.688;2023-02-13T17:32:05;51.35;;;23.38;;
28170;SDS011;15458;53.346;-1.688;2023-02-13T17:34:33;51.67;;;24.85;;
28170;SDS011;15458;53.346;-1.688;2023-02-13T17:36:58;48.83;;;23.83;;
28170;SDS011;15458;53.346;-1.688;2023-02-13T17:39:24;52.40;;;24.08;;
28170;SDS011;15458;53.346;-1.688;2023-02-13T17:41:50;50.85;;;23.23;;
28170;SDS011;15458;53.346;-1.688;2023-02-13T17:44:15;46.95;;;22.10;;
28170;SDS011;15458;53.346;-1.688;2023-02-13T17:46:41;41.13;;;20.88;;
28170;SDS011;15458;53.346;-1.688;2023-02-13T17:49:07;46.67;;;22.10;;
28170;SDS011;15458;53.346;-1.688;2023-02-13T17:51:40;46.55;;;21.88;;
28170;SDS011;15458;53.346;-1.688;2023-02-13T17:54:07;46.10;;;20.77;;
28170;SDS011;15458;53.346;-1.688;2023-02-13T17:56:35;50.22;;;23.52;;
28170;SDS011;15458;53.346;-1.688;2023-02-13T17:59:01;45.58;;;21.42;;
28170;SDS011;15458;53.346;-1.688;2023-02-13T18:01:26;47.22;;;21.90;;